Tiempo atmosférico en la estación meteorológica de Fuente De Piedra, Málaga (423 m.)



Fecha
DESCASC
Temp. máxima en grados centígrados (hora)
DESCASC
Temp. mínima en grados centígrados (hora)
DESCASC
Temp. media en grados centígrados
DESCASC
Racha de viento máxima en m/sg (hora)
DESCASC
Velocidad máxima media en intervalos de 10 minutos(hora)
DESCASC
Precipitaciones diarias en mm
DESCASC
Precipitaciones de 00:00 a 06:00 en mm
DESCASC
Precipitaciones de 06:00 a 12:00 en mm
DESCASC
Precipitaciones de 12:00 a 18:00 en mm
DESCASC
Precipitaciones de 18:00 a 24:00 en mm
DESCASC
20-05-2018 23 (14:00) 11.6 (06:10) 17.3 9.44 (16:20) 5.56 (16:30) 8.8 0 0 3.4 5.4
19-05-2018 24.2 (13:40) 12.5 (07:10) 18.4 13.61 (16:00) 8.89 (15:50) 3.6 0 0 3.4 0.2
18-05-2018 23.7 (16:50) 12.1 (00:00) 17.9 12.5 (19:00) 8.89 (19:00) 0 0 0 0 0
17-05-2018 26.5 (15:50) 9 (00:00) 17.8 14.72 (19:50) 10.56 (19:50) 0 0 0 0 0
16-05-2018 25.2 (15:40) 11.6 (00:00) 18.4 11.94 (18:20) 8.61 (18:20) 0 0 0 0 0
15-05-2018 25.5 (16:00) 8.3 (00:00) 16.9 10.28 (16:20) 6.11 (19:50) 0 0 0 0 0
14-05-2018 24.7 (17:00) 6.2 (00:00) 15.5 10 (18:50) 5.83 (18:50) 0 0 0 0 0
13-05-2018 21.1 (16:20) 7.2 (00:00) 14.2 9.17 (17:30) 5.83 (00:10) 0 0 0 0 0
12-05-2018 21.6 (17:30) 12.2 (00:00) 16.9 13.33 (18:40) 7.22 (18:30) 0 0 0 0 0
11-05-2018 25.7 (18:10) 9.8 (07:40) 17.8 7.78 (20:00) 5.56 (20:20) 0 0 0 0 0
10-05-2018 23 (18:20) 13.5 (00:00) 18.3 8.33 (20:30) 5.83 (20:40) 0 0 0 0 0
09-05-2018 20 (15:30) 12.7 (00:00) 16.3 8.89 (18:30) 5.83 (15:30) 0 0 0 0 0
08-05-2018 25.1 (16:50) 11.2 (00:00) 18.2 11.39 (18:30) 7.5 (18:30) 0 0 0 0 0
07-05-2018 25 (18:10) 10.3 (00:00) 17.7 9.72 (11:00) 7.22 (11:20) 0 0 0 0 0
06-05-2018 22.7 (14:50) 12.8 (00:00) 17.8 10 (13:20) 6.94 (13:40) 0 0 0 0 0
05-05-2018 23.9 (16:20) 8.2 (00:00) 16 8.33 (19:00) 5.83 (19:30) 0 0 0 0 0
04-05-2018 21.3 (12:50) 11.1 (00:00) 16.2 11.67 (14:40) 7.5 (15:00) 0 0 0 0 0
03-05-2018 21.7 (17:40) 4.9 (00:00) 13.3 7.78 (16:20) 5.28 (23:10) 0 0 0 0 0
02-05-2018 19.1 (17:30) 4.1 (00:00) 11.6 8.33 (13:20) 5.56 (20:20) 0 0 0 0 0
01-05-2018 14.2 (13:00) 5.5 (06:10) 9.8 16.11 (15:30) 10.28 (15:40) 0.6 0 0 0.6 0
30-04-2018 14.9 (15:40) 7.1 (00:00) 11 8.89 (15:50) 5.83 (16:30) 0 0 0 0 0
29-04-2018 16 (16:30) 7.8 (00:00) 11.9 13.33 (13:10) 8.06 (20:00) 1.6 1.4 0 0.2 0
28-04-2018 18.7 (15:40) 8.9 (00:00) 13.8 12.5 (23:10) 9.17 (23:10) 0 0 0 0 0
27-04-2018 23.6 (15:30) 12.5 (00:00) 18.1 9.17 (17:00) 5.28 (19:10) 0 0 0 0 0
26-04-2018 24.5 (14:50) 12.1 (00:00) 18.3 10 (17:20) 6.94 (17:20) 0 0 0 0 0
25-04-2018 22.9 (18:30) 12.4 (00:00) 17.6 6.94 (01:00) 4.17 (03:30) 0 0 0 0 0
24-04-2018 25.5 (17:10) 15.2 (00:00) 20.3 8.89 (02:30) 6.11 (02:20) 0.8 0.8 0 0 0
23-04-2018 26.8 (16:50) 13.9 (00:00) 20.3 10 (21:20) 6.67 (21:20) 1.4 1.4 0 0 0
22-04-2018 25.4 (17:50) 10 (00:00) 17.7 8.61 (11:10) 6.11 (11:10) 2.4 0 0 0 2.4

Gráficas

Temp. máximas Temp. mínimas Temp. medias Precipitaciones Rachas de viento máximas Velocidades máximas media en intervalos de 10 minutos

Datos horarios

Fecha y hora oficial Temperatura (ºC) Velocidad del viento (km/h) Dirección del viento Racha (km/h) Dirección de racha Precipitación (mm) Presión (hPa) Tendencia (hPa) Humedad (%)
2018-05-21 23:00:00 15.4 3 Este 13 Nordeste 0 -- -- 85
2018-05-21 22:00:00 16.2 5 Norte 13 Sudoeste 0 -- -- 82
2018-05-21 21:00:00 17.4 11 Sudoeste 29 Sudoeste 0 -- -- 71
2018-05-21 20:00:00 18.9 13 Sudoeste 19 Sudoeste 0 -- -- 67
2018-05-21 19:00:00 18.6 11 Sur 23 Sur 0 -- -- 72
2018-05-21 18:00:00 17.3 13 Sur 20 Sur 0 -- -- 72
2018-05-21 17:00:00 18.1 17 Sur 24 Sur 0 -- -- 68
2018-05-21 16:00:00 17.9 20 Este 28 Este 0 -- -- 74
2018-05-21 15:00:00 16.5 8 Sudeste 32 Sur 1.8 -- -- 84
2018-05-21 14:00:00 19.5 10 Noroeste 24 Noroeste 0 -- -- 66
2018-05-21 13:00:00 20.7 6 Sudoeste 13 Oeste 0 -- -- 60
2018-05-21 12:00:00 18.8 5 Oeste 8 Oeste 0 -- -- 70
2018-05-21 11:00:00 16.7 5 Oeste 7 Oeste 0 -- -- 83
2018-05-21 10:00:00 14.5 4 Sudoeste 5 Sudoeste 0 -- -- 94
2018-05-21 09:00:00 13.1 0 Calma 6 Sur 0 -- -- 96
2018-05-21 08:00:00 12.3 0 Calma 6 Este 0 -- -- 95
2018-05-21 07:00:00 11.8 5 Sudeste 6 Sudeste 0 -- -- 95
2018-05-21 06:00:00 11.6 0 Calma 6 Sudeste 0 -- -- 94
2018-05-21 05:00:00 12 0 Calma 5 Sur 0 -- -- 94
2018-05-21 04:00:00 12.3 4 Sur 8 Sur 0 -- -- 94
2018-05-21 03:00:00 12.8 6 Sur 9 Sur 0 -- -- 93
2018-05-21 02:00:00 13.6 2 Sur 4 Sudeste 0 -- -- 93
2018-05-21 01:00:00 14.1 4 Oeste 7 Oeste 0 -- -- 93
2018-05-21 00:00:00 13.8 4 Noroeste 6 Noroeste 0 -- -- 92
2018-05-20 23:00:00 13.8 0 Calma 18 Este 0 -- -- 91
2018-05-20 22:00:00 14.3 12 Sudeste 19 Este 0 -- -- 90
2018-05-20 21:00:00 15.5 3 Nordeste 13 Sudoeste 0.2 -- -- 87
2018-05-20 20:00:00 14.7 9 Oeste 19 Sur 2.2 -- -- 87
2018-05-20 19:00:00 14.7 0 Calma 17 Oeste 3 -- -- 88
2018-05-20 18:00:00 15.4 10 Oeste 24 Oeste 0.2 -- -- 83
2018-05-20 17:00:00 16.5 12 Sudoeste 34 Sur 0 -- -- 79
2018-05-20 16:00:00 16.4 12 Sur 23 Sudoeste 2.2 -- -- 76
2018-05-20 15:00:00 18.5 10 Norte 30 Noroeste 1 -- -- 75
2018-05-20 14:00:00 23 5 Sudeste 10 Sudoeste 0 -- -- 52
2018-05-20 13:00:00 21.6 4 Sur 8 Sur 0 -- -- 51
2018-05-20 12:00:00 20 4 Sudoeste 8 Oeste 0 -- -- 59
2018-05-20 11:00:00 18.1 5 Oeste 6 Oeste 0 -- -- 68
2018-05-20 10:00:00 14.5 0 Calma 4 Sudeste 0 -- -- 90
2018-05-20 09:00:00 12.8 4 Sudeste 5 Sudeste 0 -- -- 92
2018-05-20 08:00:00 12.3 0 Calma 4 Sudeste 0 -- -- 92
2018-05-20 07:00:00 12.1 2 Sudeste 6 Sudeste 0 -- -- 92
2018-05-20 06:00:00 11.7 3 Norte 6 Sur 0 -- -- 90
2018-05-20 05:00:00 12 5 Sur 9 Sur 0 -- -- 90
2018-05-20 04:00:00 12.4 2 Sudeste 6 Sur 0 -- -- 89
2018-05-20 03:00:00 12.8 3 Sur 8 Sudoeste 0 -- -- 87
2018-05-20 02:00:00 13.2 6 Sur 8 Sudeste 0 -- -- 86
2018-05-20 01:00:00 14.3 0 Calma 9 Sur 0 -- -- 83
2018-05-20 00:00:00 14.9 9 Sur 11 Sur 0 -- -- 79
2018-05-19 23:00:00 16 5 Sur 15 Sur 0 -- -- 75
2018-05-19 22:00:00 17.4 11 Sur 21 Sudoeste 0.2 -- -- 73
2018-05-19 21:00:00 18 6 Este 13 Este 0 -- -- 73
2018-05-19 20:00:00 19.4 7 Noroeste 10 Noroeste 0 -- -- 67
2018-05-19 19:00:00 20.1 6 Noroeste 18 Sur 0 -- -- 61
2018-05-19 18:00:00 18.5 11 Sudeste 27 Sudoeste 0.2 -- -- 77
2018-05-19 17:00:00 15.8 16 Sudoeste 42 Nordeste 3.2 -- -- 84
2018-05-19 16:00:00 17.3 28 Nordeste 49 Nordeste 0 -- -- 58
2018-05-19 15:00:00 22.6 11 Sur 30 Sur 0 -- -- 49
2018-05-19 14:00:00 22.4 21 Sur 32 Sudeste 0 -- -- 46
2018-05-19 13:00:00 23.2 18 Sur 30 Sudoeste 0 -- -- 47
2018-05-19 12:00:00 22.2 4 Norte 10 Oeste 0 -- -- 46
2018-05-19 11:00:00 19.7 5 Oeste 9 Oeste 0 -- -- 54
2018-05-19 10:00:00 17.9 3 Oeste 5 Sudoeste 0 -- -- 62
2018-05-19 09:00:00 15.4 3 Sudoeste 7 Norte 0 -- -- 73
2018-05-19 08:00:00 13.7 2 Nordeste 5 Norte 0 -- -- 83
2018-05-19 07:00:00 12.6 5 Norte 8 Nordeste 0 -- -- 80
2018-05-19 06:00:00 14.1 8 Sudeste 11 Sur 0 -- -- 75
2018-05-19 05:00:00 14.8 2 Sudeste 8 Sur 0 -- -- 74
2018-05-19 04:00:00 14.7 5 Sur 13 Sur 0 -- -- 76
2018-05-19 03:00:00 15.1 11 Sur 20 Sur 0 -- -- 72
2018-05-19 02:00:00 15.7 13 Sur 26 Sur 0 -- -- 69
2018-05-19 01:00:00 14.7 9 Sur 14 Sur 0 -- -- 72
2018-05-19 00:00:00 14.9 12 Sur 19 Sur 0 -- -- 69
2018-05-18 23:00:00 15.4 8 Sudeste 12 Sudeste 0 -- -- 65
2018-05-18 22:00:00 16.7 9 Sur 19 Sur 0 -- -- 53
2018-05-18 21:00:00 17.7 16 Sur 33 Sur 0 -- -- 46
2018-05-18 20:00:00 18.9 22 Sur 41 Sur 0 -- -- 44
2018-05-18 19:00:00 20.8 32 Sur 45 Sur 0 -- -- 39
2018-05-18 18:00:00 22.3 30 Sur 41 Sur 0 -- -- 37
2018-05-18 17:00:00 23.5 24 Sur 37 Sur 0 -- -- 38
2018-05-18 16:00:00 23.2 24 Sur 39 Sur 0 -- -- 39
2018-05-18 15:00:00 23.2 26 Sur 41 Sur 0 -- -- 40
2018-05-18 14:00:00 22 21 Sur 33 Sur 0 -- -- 40
2018-05-18 13:00:00 22.1 17 Sur 30 Sur 0 -- -- 42
2018-05-18 12:00:00 21.3 19 Sur 31 Sur 0 -- -- 46
2018-05-18 11:00:00 19.7 19 Sur 33 Sur 0 -- -- 52
2018-05-18 10:00:00 17.6 21 Sur 30 Sur 0 -- -- 60
2018-05-18 09:00:00 15.9 6 Sur 13 Sur 0 -- -- 72
2018-05-18 08:00:00 13 6 Sur 9 Sudoeste 0 -- -- 84
2018-05-18 07:00:00 12.4 8 Sur 10 Sudoeste 0 -- -- 85
2018-05-18 06:00:00 12.7 6 Sur 13 Sudoeste 0 -- -- 84
2018-05-18 05:00:00 13.6 9 Sur 14 Sur 0 -- -- 84
2018-05-18 04:00:00 13.7 9 Sur 14 Sur 0 -- -- 83
2018-05-18 03:00:00 13.7 12 Sur 18 Sur 0 -- -- 84
2018-05-18 02:00:00 13.6 8 Sur 24 Sur 0 -- -- 82
2018-05-18 01:00:00 14.4 16 Sur 32 Sur 0 -- -- 80
2018-05-18 00:00:00 14.6 18 Sur 28 Sur 0 -- -- 79
2018-05-17 23:00:00 15.3 19 Sur 36 Sudoeste 0 -- -- 73
2018-05-17 22:00:00 16.1 17 Sur 36 Sur 0 -- -- 69
2018-05-17 21:00:00 17.7 24 Sur 47 Sur 0 -- -- 59
2018-05-17 20:00:00 19.2 36 Sur 53 Sur 0 -- -- 55
2018-05-17 19:00:00 21.7 31 Sur 44 Sur 0 -- -- 45
2018-05-17 18:00:00 22.5 28 Sur 44 Sudeste 0 -- -- 43
2018-05-17 17:00:00 24.6 24 Sur 38 Sur 0 -- -- 38
2018-05-17 16:00:00 26.2 23 Sur 35 Sur 0 -- -- 33
2018-05-17 15:00:00 25.6 6 Sudoeste 13 Sudoeste 0 -- -- 28
2018-05-17 14:00:00 24.4 9 Sudoeste 14 Sudoeste 0 -- -- 34
2018-05-17 13:00:00 23.6 10 Sur 14 Sur 0 -- -- 37
2018-05-17 12:00:00 21.2 8 Sudoeste 13 Noroeste 0 -- -- 45
2018-05-17 11:00:00 19.2 6 Noroeste 11 Noroeste 0 -- -- 47
2018-05-17 10:00:00 16.5 8 Sudoeste 11 Oeste 0 -- -- 66
2018-05-17 09:00:00 14.1 5 Norte 9 Noroeste 0 -- -- 72
2018-05-17 08:00:00 9.6 2 Oeste 5 Noroeste 0 -- -- 83
2018-05-17 07:00:00 10.4 3 Sudeste 5 Sudeste 0 -- -- 80
2018-05-17 06:00:00 10.5 0 Calma 6 Sudeste 0 -- -- 77
2018-05-17 05:00:00 12.4 2 Sur 8 Oeste 0 -- -- 70
2018-05-17 04:00:00 13.2 4 Sudeste 30 Sur 0 -- -- 67
2018-05-17 03:00:00 13.7 20 Sur 33 Sur 0 -- -- 65
2018-05-17 02:00:00 13.9 22 Sur 45 Sur 0 -- -- 63
2018-05-17 01:00:00 14.6 30 Sur 45 Sur 0 -- -- 60
2018-05-17 00:00:00 14.6 22 Sur 32 Sur 0 -- -- 60
2018-05-16 23:00:00 14.9 14 Sur 22 Sur 0 -- -- 63
2018-05-16 22:00:00 15.6 13 Sur 31 Sur 0 -- -- 61
2018-05-16 21:00:00 17.5 22 Sur 41 Sur 0 -- -- 54
2018-05-16 20:00:00 19.5 26 Sur 41 Sur 0 -- -- 49
2018-05-16 19:00:00 21.2 30 Sur 43 Sur 0 -- -- 45
2018-05-16 18:00:00 22.3 30 Sur 41 Sur 0 -- -- 41
2018-05-16 17:00:00 24.1 24 Sur 35 Sur 0 -- -- 39
2018-05-16 16:00:00 25 20 Sur 32 Sur 0 -- -- 34
2018-05-16 15:00:00 24.4 19 Sur 35 Sur 0 -- -- 34
2018-05-16 14:00:00 23.4 22 Sur 41 Sur 0 -- -- 36
2018-05-16 13:00:00 21.7 24 Sur 42 Sur 0 -- -- 40
2018-05-16 12:00:00 20.6 24 Sur 37 Sur 0 -- -- 47
2018-05-16 11:00:00 19.7 17 Sur 26 Sur 0 -- -- 50
2018-05-16 10:00:00 17.9 14 Sur 26 Sur 0 -- -- 53
2018-05-16 09:00:00 15.9 14 Sur 28 Sur 0 -- -- 56
2018-05-16 08:00:00 13.5 18 Sur 25 Sur 0 -- -- 66
2018-05-16 07:00:00 12.7 9 Sur 16 Sur 0 -- -- 70
2018-05-16 06:00:00 12.2 8 Sur 14 Sur 0 -- -- 70
2018-05-16 05:00:00 11.6 10 Sur 13 Sudoeste 0 -- -- 65
2018-05-16 04:00:00 11.9 7 Sur 12 Sudoeste 0 -- -- 63
2018-05-16 03:00:00 13.2 7 Sur 15 Sur 0 -- -- 60
2018-05-16 02:00:00 15.3 8 Sudoeste 16 Sudoeste 0 -- -- 58
2018-05-16 01:00:00 15.2 9 Sudoeste 14 Sudoeste 0 -- -- 54
2018-05-16 00:00:00 15.3 9 Sur 15 Sur 0 -- -- 53
2018-05-15 23:00:00 16.2 8 Sur 15 Sur 0 -- -- 51
2018-05-15 22:00:00 17.7 9 Sur 21 Sur 0 -- -- 45
2018-05-15 21:00:00 20.1 15 Sur 27 Sur 0 -- -- 37
2018-05-15 20:00:00 22.6 19 Sur 30 Sur 0 -- -- 32
2018-05-15 19:00:00 24.5 14 Sur 30 Sur 0 -- -- 31
2018-05-15 18:00:00 25 17 Sur 28 Sur 0 -- -- 30
2018-05-15 17:00:00 25.4 13 Sudoeste 37 Sur 0 -- -- 29
2018-05-15 16:00:00 25.5 12 Sur 25 Sur 0 -- -- 27
2018-05-15 15:00:00 25.1 13 Sur 30 Sur 0 -- -- 26
2018-05-15 14:00:00 24.5 17 Sur 30 Sur 0 -- -- 27
2018-05-15 13:00:00 24.1 12 Sudeste 25 Sur 0 -- -- 29
2018-05-15 12:00:00 21.3 7 Oeste 14 Oeste 0 -- -- 35
2018-05-15 11:00:00 19.5 4 Noroeste 8 Noroeste 0 -- -- 42
2018-05-15 10:00:00 16 3 Noroeste 5 Oeste 0 -- -- 51
2018-05-15 09:00:00 13 0 Calma 3 Sur 0 -- -- 66
2018-05-15 08:00:00 9.7 0 Calma 4 Norte 0 -- -- 75
2018-05-15 07:00:00 8.9 0 Calma 5 Sur 0 -- -- 74
2018-05-15 06:00:00 9.4 2 Norte 6 Norte 0 -- -- 72
2018-05-15 05:00:00 10.3 0 Calma 4 Sur 0 -- -- 70
2018-05-15 04:00:00 11.1 2 Nordeste 6 Sur 0 -- -- 66
2018-05-15 03:00:00 12.2 3 Sur 9 Sur 0 -- -- 60
2018-05-15 02:00:00 13 5 Sudeste 12 Sur 0 -- -- 57
2018-05-15 01:00:00 14.1 7 Sur 24 Sur 0 -- -- 54
2018-05-15 00:00:00 15.6 7 Este 11 Sudeste 0 -- -- 54
2018-05-14 23:00:00 17 7 Norte 8 Norte 0 -- -- 51
2018-05-14 22:00:00 18.6 8 Norte 13 Norte 0 -- -- 46
2018-05-14 21:00:00 21.5 11 Norte 25 Norte 0 -- -- 38
2018-05-14 20:00:00 23.2 16 Norte 29 Norte 0 -- -- 33
2018-05-14 19:00:00 23.8 15 Norte 36 Norte 0 -- -- 31
2018-05-14 18:00:00 24.4 17 Norte 30 Norte 0 -- -- 32
2018-05-14 17:00:00 24.7 14 Norte 28 Noroeste 0 -- -- 29
2018-05-14 16:00:00 24.3 11 Norte 23 Norte 0 -- -- 30
2018-05-14 15:00:00 23.5 9 Noroeste 24 Noroeste 0 -- -- 29
2018-05-14 14:00:00 23 8 Noroeste 18 Noroeste 0 -- -- 30
2018-05-14 13:00:00 21.3 6 Noroeste 14 Noroeste 0 -- -- 32
2018-05-14 12:00:00 19.1 5 Oeste 10 Oeste 0 -- -- 40
2018-05-14 11:00:00 16.5 5 Oeste 9 Oeste 0 -- -- 45
2018-05-14 10:00:00 13.9 5 Sudoeste 7 Sudoeste 0 -- -- 59
2018-05-14 09:00:00 10.8 3 Sudoeste 5 Sudoeste 0 -- -- 71
2018-05-14 08:00:00 7.8 0 Calma 4 Norte 0 -- -- 82
2018-05-14 07:00:00 6.3 0 Calma 2 Noroeste 0 -- -- 78
2018-05-14 06:00:00 7.3 0 Calma 5 Sur 0 -- -- 73
2018-05-14 05:00:00 8.7 2 Sudeste 8 Noroeste 0 -- -- 70
2018-05-14 04:00:00 9.2 4 Norte 5 Norte 0 -- -- 61
2018-05-14 03:00:00 10.1 0 Calma 6 Sudeste 0 -- -- 58
2018-05-14 02:00:00 11.4 0 Calma 8 Nordeste 0 -- -- 55
2018-05-14 01:00:00 12.2 7 Nordeste 10 Norte 0 -- -- 47
2018-05-11 20:00:00 -- -- -- -- -- -- -- -- --
2018-05-11 19:00:00 -- -- -- -- -- -- -- -- --
2018-05-11 18:00:00 -- -- -- -- -- -- -- -- --
2018-05-11 17:00:00 -- -- -- -- -- -- -- -- --
2018-05-11 16:00:00 24.9 9 Sudoeste 16 Sur 0 -- -- 45
2018-05-11 15:00:00 24.1 8 Sudoeste 17 Sudoeste 0 -- -- 48
2018-05-11 14:00:00 23.3 10 Sudoeste 16 Sudoeste 0 -- -- 51
2018-05-11 13:00:00 21.2 6 Oeste 13 Oeste 0 -- -- 55
2018-05-11 12:00:00 19.9 7 Oeste 10 Oeste 0 -- -- 59
2018-05-11 11:00:00 17.8 5 Oeste 10 Oeste 0 -- -- 72
2018-05-11 10:00:00 15.2 2 Noroeste 5 Oeste 0 -- -- 85
2018-05-11 09:00:00 12.7 2 Oeste 6 Norte 0 -- -- 92
2018-05-11 08:00:00 10.2 0 Calma 8 Este 0 -- -- 93
2018-05-11 07:00:00 10.6 2 Este 5 Norte 0 -- -- 92
2018-05-11 06:00:00 10.5 4 Norte 6 Norte 0 -- -- 91
2018-05-11 05:00:00 11.6 4 Norte 8 Nordeste 0 -- -- 89
2018-05-11 04:00:00 12.3 6 Nordeste 9 Este 0 -- -- 87
2018-05-11 03:00:00 13.6 4 Nordeste 9 Noroeste 0 -- -- 83
2018-05-11 02:00:00 14.3 3 Nordeste 8 Este 0 -- -- 82
2018-05-11 01:00:00 13.7 2 Este 7 Sur 0 -- -- 83
2018-05-11 00:00:00 14.6 3 Sur 8 Oeste 0 -- -- 80
2018-05-10 23:00:00 16.1 3 Sudoeste 15 Oeste 0 -- -- 73
2018-05-10 22:00:00 16.9 12 Noroeste 23 Noroeste 0 -- -- 70
2018-05-10 21:00:00 18.9 15 Noroeste 30 Noroeste 0 -- -- 63
2018-05-10 20:00:00 21.6 13 Noroeste 24 Noroeste 0 -- -- 51
2018-05-10 19:00:00 22.6 14 Noroeste 23 Noroeste 0 -- -- 50
2018-05-10 18:00:00 22.8 13 Noroeste 24 Oeste 0 -- -- 49
2018-05-10 17:00:00 22.3 13 Noroeste 25 Oeste 0 -- -- 49
2018-05-10 16:00:00 22.8 9 Noroeste 20 Noroeste 0 -- -- 49
2018-05-10 15:00:00 21.5 6 Noroeste 17 Oeste 0 -- -- 53
2018-05-10 14:00:00 20.2 6 Norte 16 Noroeste 0 -- -- 58
2018-05-10 13:00:00 19.2 6 Noroeste 13 Noroeste 0 -- -- 59
2018-05-10 12:00:00 17.9 6 Noroeste 15 Noroeste 0 -- -- 63
2018-05-10 11:00:00 16.4 10 Noroeste 17 Noroeste 0 -- -- 78
2018-05-10 10:00:00 15.3 12 Noroeste 17 Norte 0 -- -- 79
2018-05-10 09:00:00 14.7 8 Norte 16 Norte 0 -- -- 81
2018-05-10 08:00:00 14.2 4 Norte 12 Noroeste 0 -- -- 83
2018-05-10 07:00:00 14 4 Noroeste 9 Oeste 0 -- -- 82
2018-05-10 06:00:00 13.9 3 Noroeste 5 Nordeste 0 -- -- 84
2018-05-10 05:00:00 13.8 5 Noroeste 10 Oeste 0 -- -- 84
2018-05-10 04:00:00 13.6 2 Noroeste 10 Oeste 0 -- -- 84
2018-05-10 03:00:00 13.8 0 Calma 13 Noroeste 0 -- -- 85
2018-05-10 02:00:00 14.1 4 Noroeste 12 Oeste 0 -- -- 83
2018-05-10 01:00:00 14.8 8 Oeste 21 Noroeste 0 -- -- 83
2018-05-10 00:00:00 15.5 15 Noroeste 24 Oeste 0 -- -- 80
2018-05-09 23:00:00 16.3 8 Oeste 21 Oeste 0 -- -- 80
2018-05-09 22:00:00 16.6 10 Oeste 18 Oeste 0 -- -- 81
2018-05-09 21:00:00 17.1 10 Oeste 21 Noroeste 0 -- -- 80
2018-05-09 20:00:00 17.3 11 Noroeste 24 Noroeste 0 -- -- 79
2018-05-09 19:00:00 18.4 17 Oeste 32 Oeste 0 -- -- 76
2018-05-09 18:00:00 18.9 14 Oeste 29 Noroeste 0 -- -- 76
2018-05-09 17:00:00 19.4 19 Noroeste 30 Oeste 0 -- -- 73
2018-05-09 16:00:00 19.8 19 Noroeste 31 Noroeste 0 -- -- 69
2018-05-09 15:00:00 19.5 18 Noroeste 28 Noroeste 0 -- -- 70
2018-05-09 14:00:00 18.4 5 Sudoeste 12 Sudoeste 0 -- -- 74
2018-05-09 13:00:00 16.9 6 Sudoeste 9 Sudoeste 0 -- -- 80
2018-05-09 12:00:00 14.9 3 Nordeste 9 Noroeste 0 -- -- 89
2018-05-09 11:00:00 14.3 7 Nordeste 15 Norte 0 -- -- 92
2018-05-09 10:00:00 14.4 8 Norte 17 Norte 0 -- -- 92
2018-05-09 09:00:00 13.9 9 Norte 21 Norte 0 -- -- 94
2018-05-09 08:00:00 13.6 14 Norte 20 Norte 0 -- -- 93
2018-05-09 07:00:00 12.9 6 Norte 9 Nordeste 0 -- -- 91
2018-05-09 06:00:00 13.6 6 Norte 9 Noroeste 0 -- -- 90
2018-05-09 05:00:00 14.5 4 Norte 8 Noroeste 0 -- -- 89
2018-05-09 04:00:00 14.9 2 Este 11 Nordeste 0 -- -- 88
2018-05-09 03:00:00 15.4 9 Norte 12 Norte 0 -- -- 86
2018-05-09 02:00:00 15.9 5 Nordeste 9 Norte 0 -- -- 86
2018-05-09 01:00:00 16.2 6 Norte 8 Norte 0 -- -- 84
2018-05-09 00:00:00 17.5 6 Este 11 Sudoeste 0 -- -- 80
2018-05-08 23:00:00 18.5 5 Oeste 19 Oeste 0 -- -- 75
2018-05-08 22:00:00 19.3 12 Noroeste 34 Oeste 0 -- -- 73
2018-05-08 21:00:00 20.7 19 Noroeste 35 Noroeste 0 -- -- 67
2018-05-08 20:00:00 22.3 24 Noroeste 38 Noroeste 0 -- -- 54
2018-05-08 19:00:00 24 27 Noroeste 41 Oeste 0 -- -- 52
2018-05-08 18:00:00 23.9 23 Noroeste 35 Oeste 0 -- -- 49
2018-05-08 17:00:00 25.1 17 Noroeste 33 Noroeste 0 -- -- 45
2018-05-08 16:00:00 24.4 13 Noroeste 25 Oeste 0 -- -- 48
2018-05-08 15:00:00 24 11 Noroeste 26 Noroeste 0 -- -- 49
2018-05-08 14:00:00 22.8 13 Noroeste 23 Oeste 0 -- -- 54
2018-05-08 13:00:00 22.3 9 Oeste 20 Oeste 0 -- -- 54
2018-05-08 12:00:00 20.7 10 Oeste 18 Oeste 0 -- -- 55
2018-05-08 11:00:00 19.6 5 Sur 10 Sur 0 -- -- 62
2018-05-08 10:00:00 16.6 3 Sudoeste 6 Sudoeste 0 -- -- 78
2018-05-08 09:00:00 13.9 0 Calma 4 Nordeste 0 -- -- 88
2018-05-08 08:00:00 11.5 3 Sur 5 Sur 0 -- -- 91
2018-05-08 07:00:00 11.9 0 Calma 5 Nordeste 0 -- -- 90
2018-05-08 06:00:00 11.8 3 Noroeste 5 Noroeste 0 -- -- 90
2018-05-08 05:00:00 12.5 3 Norte 10 Este 0 -- -- 86
2018-05-08 04:00:00 13.3 6 Este 11 Sudeste 0 -- -- 86
2018-05-08 03:00:00 15.4 7 Sudoeste 17 Sudoeste 0 -- -- 78
2018-05-08 02:00:00 16.3 9 Sudoeste 17 Oeste 0 -- -- 76
2018-05-08 01:00:00 17 12 Oeste 26 Oeste 0 -- -- 73
2018-05-08 00:00:00 15.4 12 Sur 15 Sur 0 -- -- 73
2018-05-07 23:00:00 16.6 9 Sur 21 Sudoeste 0 -- -- 69
2018-05-07 22:00:00 17.5 13 Sudoeste 22 Sudoeste 0 -- -- 65
2018-05-07 21:00:00 19.1 11 Sur 30 Sur 0 -- -- 58
2018-05-07 20:00:00 21.3 23 Sur 30 Sur 0 -- -- 50
2018-05-07 19:00:00 24.9 10 Sudoeste 18 Sudoeste 0 -- -- 36
2018-05-07 18:00:00 24.8 10 Sudoeste 17 Sudoeste 0 -- -- 38
2018-05-07 17:00:00 24.5 10 Sudoeste 18 Sudoeste 0 -- -- 41
2018-05-07 16:00:00 23.6 6 Sudoeste 14 Sudoeste 0 -- -- 41
2018-05-07 15:00:00 22.2 10 Sudoeste 22 Sudoeste 0 -- -- 49
2018-05-07 14:00:00 21.7 9 Sudoeste 26 Sudoeste 0 -- -- 49
2018-05-07 13:00:00 21.8 14 Sur 28 Sudoeste 0 -- -- 53
2018-05-07 12:00:00 20 17 Sur 35 Sur 0 -- -- 60
2018-05-07 11:00:00 18.3 26 Sur 35 Sur 0 -- -- 64
2018-05-07 10:00:00 16.5 20 Sur 29 Sur 0 -- -- 73
2018-05-07 09:00:00 12.2 0 Calma 6 Nordeste 0 -- -- 91
2018-05-07 08:00:00 10.3 6 Norte 8 Nordeste 0 -- -- 90
2018-05-07 07:00:00 10.7 4 Sudeste 7 Norte 0 -- -- 89
2018-05-07 06:00:00 10.9 6 Sudeste 10 Nordeste 0 -- -- 87
2018-05-07 05:00:00 12.2 0 Calma 6 Norte 0 -- -- 83
2018-05-07 04:00:00 12.9 5 Norte 12 Sudoeste 0 -- -- 80
2018-05-07 03:00:00 13.8 5 Sur 26 Sur 0 -- -- 79
2018-05-07 02:00:00 13.6 13 Sur 24 Sur 0 -- -- 80
2018-05-07 01:00:00 14.6 18 Sur 24 Sur 0 -- -- 74
2018-05-07 00:00:00 14.8 7 Sudeste 22 Sur 0 -- -- 73
2018-05-06 23:00:00 15.5 14 Sur 23 Sur 0 -- -- 76
2018-05-06 22:00:00 16.5 13 Sur 24 Sur 0 -- -- 73
2018-05-06 21:00:00 17.8 11 Sur 30 Sur 0 -- -- 67
2018-05-06 20:00:00 19 19 Sur 33 Sur 0 -- -- 64
2018-05-06 19:00:00 20.5 23 Sur 32 Sur 0 -- -- 58
2018-05-06 18:00:00 21.6 21 Sur 32 Sur 0 -- -- 53
2018-05-06 17:00:00 22.2 22 Sur 33 Sur 0 -- -- 51
2018-05-06 16:00:00 22 22 Sur 36 Sur 0 -- -- 50
2018-05-06 15:00:00 22.4 21 Sur 35 Sur 0 -- -- 48
2018-05-06 14:00:00 21.7 25 Sur 36 Sur 0 -- -- 49
2018-05-06 13:00:00 21.2 18 Sur 32 Sur 0 -- -- 53
2018-05-06 12:00:00 20 15 Sur 23 Sudoeste 0 -- -- 57
2018-05-06 11:00:00 20.2 11 Sur 18 Sur 0 -- -- 54
2018-05-06 10:00:00 17.6 6 Sur 15 Sur 0 -- -- 63
2018-05-06 09:00:00 14.5 10 Sudeste 22 Sur 0 -- -- 73
2018-05-06 08:00:00 13.3 15 Sur 22 Sur 0 -- -- 75
2018-05-06 07:00:00 13.5 8 Sur 22 Sur 0 -- -- 72
2018-05-06 06:00:00 13.4 14 Sur 21 Sur 0 -- -- 68
2018-05-06 05:00:00 13.4 10 Sur 24 Sur 0 -- -- 67
2018-05-06 04:00:00 14.4 17 Sur 27 Sur 0 -- -- 62
2018-05-06 03:00:00 14 10 Sur 22 Sur 0 -- -- 66
2018-05-06 02:00:00 14.7 14 Sur 23 Sur 0 -- -- 62
2018-05-06 01:00:00 14.2 12 Sur 19 Sur 0 -- -- 67
2018-05-06 00:00:00 15.5 9 Sur 17 Sudoeste 0 -- -- 66
2018-05-05 23:00:00 16 6 Sur 17 Sur 0 -- -- 67
2018-05-05 22:00:00 17.1 14 Sur 23 Sur 0 -- -- 63
2018-05-05 21:00:00 18.5 13 Sur 29 Sur 0 -- -- 59
2018-05-05 20:00:00 20.2 18 Sur 29 Sur 0 -- -- 53
2018-05-05 19:00:00 21.9 20 Sur 30 Sur 0 -- -- 49
2018-05-05 18:00:00 21.5 13 Sur 26 Sur 0 -- -- 52
2018-05-05 17:00:00 22.7 14 Sur 25 Sur 0 -- -- 48
2018-05-05 16:00:00 23.3 14 Sur 23 Sudeste 0 -- -- 47
2018-05-05 15:00:00 22.5 7 Sudoeste 24 Sur 0 -- -- 46
2018-05-05 14:00:00 21.9 14 Sur 24 Sur 0 -- -- 51
2018-05-05 13:00:00 21.2 12 Sur 22 Sur 0 -- -- 52
2018-05-05 12:00:00 18.8 7 Sudoeste 10 Sudoeste 0 -- -- 61
2018-05-05 11:00:00 16.1 6 Oeste 9 Sudoeste 0 -- -- 71
2018-05-05 10:00:00 14 5 Sudoeste 9 Oeste 0 -- -- 82
2018-05-05 09:00:00 11.1 0 Calma 4 Sur 0 -- -- 93
2018-05-05 08:00:00 8.2 3 Norte 4 Sur 0 -- -- 92
2018-05-05 07:00:00 8.5 3 Sur 6 Oeste 0 -- -- 92
2018-05-05 06:00:00 8.3 2 Nordeste 6 Norte 0 -- -- 91
2018-05-05 05:00:00 8.8 3 Noroeste 5 Sudeste 0 -- -- 90
2018-05-05 04:00:00 10.2 0 Calma 8 Norte 0 -- -- 89
2018-05-05 03:00:00 10.8 3 Sur 9 Sur 0 -- -- 87
2018-05-05 02:00:00 11.5 3 Este 10 Nordeste 0 -- -- 82
2018-05-05 01:00:00 11.7 8 Norte 12 Sudoeste 0 -- -- 81
2018-05-05 00:00:00 13.5 4 Noroeste 14 Sudoeste 0 -- -- 75
2018-05-04 23:00:00 14.2 6 Oeste 12 Oeste 0 -- -- 73
2018-05-04 22:00:00 14.8 8 Sur 14 Sur 0 -- -- 70
2018-05-04 21:00:00 17.7 11 Sur 22 Sudoeste 0 -- -- 57
2018-05-04 20:00:00 18.9 15 Sudoeste 24 Sudoeste 0 -- -- 55
2018-05-04 19:00:00 18.8 18 Sudoeste 27 Sudoeste 0 -- -- 58
2018-05-04 18:00:00 19.9 15 Sur 27 Sudeste 0 -- -- 56
2018-05-04 17:00:00 18.9 19 Sur 32 Sur 0 -- -- 55
2018-05-04 16:00:00 16.3 19 Sur 30 Sur 0 -- -- 69
2018-05-04 15:00:00 17 27 Sur 42 Sudeste 0 -- -- 59
2018-05-04 14:00:00 19.5 15 Noroeste 28 Oeste 0 -- -- 60
2018-05-04 13:00:00 20.2 13 Noroeste 23 Noroeste 0 -- -- 57
2018-05-04 12:00:00 19.7 4 Oeste 9 Oeste 0 -- -- 59
2018-05-04 11:00:00 17.5 4 Sudoeste 9 Sudoeste 0 -- -- 67
2018-05-04 10:00:00 15.3 4 Sudoeste 8 Oeste 0 -- -- 74
2018-05-04 09:00:00 14.1 3 Este 6 Sur 0 -- -- 82
2018-05-04 08:00:00 11.1 5 Nordeste 8 Norte 0 -- -- 87
2018-05-04 07:00:00 12.1 3 Nordeste 10 Nordeste 0 -- -- 85
2018-05-04 06:00:00 12.3 6 Nordeste 10 Norte 0 -- -- 85
2018-05-04 05:00:00 11.8 4 Norte 10 Noroeste 0 -- -- 85
2018-05-04 04:00:00 12.4 2 Sudeste 10 Sur 0 -- -- 83
2018-05-04 03:00:00 12.6 9 Sudeste 10 Sudeste 0 -- -- 81
2018-05-04 02:00:00 14.6 3 Norte 8 Oeste 0 -- -- 73
2018-05-04 01:00:00 15.3 0 Calma 9 Noroeste 0 -- -- 72
2018-05-04 00:00:00 15.5 7 Noroeste 27 Noroeste 0 -- -- 70
2018-05-03 23:00:00 16.1 16 Noroeste 25 Noroeste 0 -- -- 69
2018-05-03 22:00:00 16.5 10 Noroeste 16 Noroeste 0 -- -- 57
2018-05-03 21:00:00 18.5 12 Noroeste 22 Noroeste 0 -- -- 48
2018-05-03 20:00:00 20.9 16 Noroeste 25 Noroeste 0 -- -- 41
2018-05-03 19:00:00 21.6 15 Norte 27 Noroeste 0 -- -- 38
2018-05-03 18:00:00 21.4 15 Noroeste 27 Norte 0 -- -- 39
2018-05-03 17:00:00 21.3 16 Noroeste 28 Norte 0 -- -- 39
2018-05-03 16:00:00 21.1 8 Norte 26 Noroeste 0 -- -- 41
2018-05-03 15:00:00 20.5 12 Norte 25 Norte 0 -- -- 43
2018-05-03 14:00:00 20 9 Norte 21 Norte 0 -- -- 44
2018-05-03 13:00:00 18.5 9 Norte 27 Nordeste 0 -- -- 45
2018-05-03 12:00:00 16.9 8 Norte 19 Norte 0 -- -- 50
2018-05-03 11:00:00 14.1 3 Oeste 9 Este 0 -- -- 63
2018-05-03 10:00:00 11.1 4 Sudoeste 6 Sudoeste 0 -- -- 70
2018-05-03 09:00:00 8.3 0 Calma 5 Sur 0 -- -- 88
2018-05-03 08:00:00 6 0 Calma 3 Sudoeste 0 -- -- 91
2018-05-03 07:00:00 5.3 0 Calma 3 Noroeste 0 -- -- 87
2018-05-03 06:00:00 6.1 0 Calma 4 Sudeste 0 -- -- 86
2018-05-03 05:00:00 6.6 0 Calma 5 Norte 0 -- -- 83
2018-05-03 04:00:00 7.8 0 Calma 6 Sudeste 0 -- -- 79
2018-05-03 03:00:00 8.5 3 Sudeste 8 Norte 0 -- -- 76
2018-05-03 02:00:00 9.5 4 Norte 18 Norte 0 -- -- 73
2018-05-03 01:00:00 10.1 9 Norte 13 Norte 0 -- -- 66
2018-05-03 00:00:00 11.6 5 Oeste 22 Oeste 0 -- -- 62
2018-05-02 23:00:00 12.2 15 Noroeste 24 Noroeste 0 -- -- 58
2018-05-02 22:00:00 13.2 13 Noroeste 18 Noroeste 0 -- -- 57
2018-05-02 21:00:00 15.5 11 Noroeste 27 Noroeste 0 -- -- 49
2018-05-02 20:00:00 17.3 13 Noroeste 30 Noroeste 0 -- -- 40
2018-05-02 19:00:00 18.3 14 Noroeste 27 Oeste 0 -- -- 38
2018-05-02 18:00:00 18.4 17 Noroeste 25 Oeste 0 -- -- 39
2018-05-02 17:00:00 18.2 10 Norte 21 Noroeste 0 -- -- 41
2018-05-02 16:00:00 18.4 13 Norte 23 Noroeste 0 -- -- 41
2018-05-02 15:00:00 17.6 9 Norte 21 Norte 0 -- -- 48
2018-05-02 14:00:00 16.9 10 Noroeste 30 Norte 0 -- -- 47
2018-05-02 13:00:00 16.2 5 Noroeste 14 Noroeste 0 -- -- 48
2018-05-02 12:00:00 14.5 4 Oeste 9 Sudoeste 0 -- -- 62
2018-05-02 11:00:00 12.2 6 Oeste 9 Oeste 0 -- -- 66
2018-05-02 10:00:00 9.7 3 Sudoeste 5 Sudoeste 0 -- -- 85
2018-05-02 09:00:00 7.3 0 Calma 5 Oeste 0 -- -- 93
2018-05-02 08:00:00 5.2 0 Calma 2 Noroeste 0 -- -- 95
2018-05-02 07:00:00 4.7 4 Sur 6 Sudeste 0 -- -- 93
2018-05-02 06:00:00 4.6 0 Calma 11 Este 0 -- -- 92
2018-05-02 05:00:00 5.1 6 Este 8 Este 0 -- -- 93
2018-05-02 04:00:00 4.6 3 Norte 5 Norte 0 -- -- 90
2018-05-02 03:00:00 6.2 2 Este 6 Sudeste 0 -- -- 89
2018-05-02 02:00:00 6.5 6 Sudeste 9 Sudeste 0 -- -- 87
2018-05-02 01:00:00 7.7 3 Noroeste 10 Noroeste 0 -- -- 83
2018-05-02 00:00:00 7.8 6 Noroeste 10 Noroeste 0 -- -- 82
2018-05-01 23:00:00 8.3 3 Noroeste 7 Oeste 0 -- -- 79
2018-05-01 22:00:00 9.3 8 Noroeste 13 Noroeste 0 -- -- 73
2018-05-01 21:00:00 11.2 8 Noroeste 20 Norte 0 -- -- 65
2018-05-01 20:00:00 13.4 11 Noroeste 18 Noroeste 0 -- -- 53
2018-05-01 19:00:00 12.8 4 Este 12 Este 0 -- -- 61
2018-05-01 18:00:00 11.7 6 Nordeste 22 Norte 0 -- -- 64
2018-05-01 17:00:00 10.3 17 Norte 49 Nordeste 0.2 -- -- 75
2018-05-01 16:00:00 7.4 37 Nordeste 58 Norte 0 -- -- 79
2018-05-01 15:00:00 12.5 2 Sur 36 Sudoeste 0 -- -- 62
2018-05-01 14:00:00 12.4 13 Oeste 44 Oeste 0.4 -- -- 60
2018-05-01 13:00:00 14.2 14 Noroeste 26 Noroeste 0 -- -- 55
2018-05-01 12:00:00 13.2 6 Sudoeste 12 Sudoeste 0 -- -- 68
2018-05-01 11:00:00 11.9 5 Sudoeste 8 Oeste 0 -- -- 76
2018-05-01 10:00:00 10.2 0 Calma 5 Noroeste 0 -- -- 91
2018-05-01 09:00:00 8.2 0 Calma 3 Oeste 0 -- -- 94
2018-05-01 08:00:00 6.1 2 Sur 4 Sudoeste 0 -- -- 94
2018-05-01 07:00:00 5.6 0 Calma 6 Sudeste 0 -- -- 92
2018-05-01 06:00:00 5.8 0 Calma 8 Este 0 -- -- 91
2018-05-01 05:00:00 6.5 5 Sudeste 10 Sudeste 0 -- -- 91
2018-05-01 04:00:00 6.7 6 Sudeste 11 Este 0 -- -- 88
2018-05-01 03:00:00 7.9 2 Sudeste 9 Este 0 -- -- 83
2018-05-01 02:00:00 8.1 4 Norte 16 Noroeste 0 -- -- 83
2018-05-01 01:00:00 9.2 9 Oeste 24 Oeste 0 -- -- 79
2018-05-01 00:00:00 9.1 3 Norte 8 Noroeste 0 -- -- 75
2018-04-30 23:00:00 9.8 3 Norte 9 Noroeste 0 -- -- 71
2018-04-30 22:00:00 10.5 9 Noroeste 18 Oeste 0 -- -- 68
2018-04-30 21:00:00 12.5 12 Noroeste 26 Oeste 0 -- -- 59
2018-04-30 20:00:00 13.6 17 Noroeste 28 Noroeste 0 -- -- 56
2018-04-30 19:00:00 13.9 19 Noroeste 30 Noroeste 0 -- -- 54
2018-04-30 18:00:00 14 18 Noroeste 30 Noroeste 0 -- -- 53
2018-04-30 17:00:00 14.2 17 Noroeste 32 Oeste 0 -- -- 50
2018-04-30 16:00:00 14.6 17 Noroeste 32 Noroeste 0 -- -- 48
2018-04-30 15:00:00 14.1 19 Noroeste 29 Noroeste 0 -- -- 49
2018-04-30 14:00:00 13.9 13 Noroeste 26 Noroeste 0 -- -- 50
2018-04-30 13:00:00 13.7 17 Oeste 28 Oeste 0 -- -- 48
2018-04-30 12:00:00 12.5 9 Oeste 32 Noroeste 0 -- -- 51
2018-04-30 11:00:00 11.8 5 Oeste 18 Oeste 0 -- -- 60
2018-04-30 10:00:00 10.8 6 Sudoeste 10 Sudoeste 0 -- -- 73
2018-04-30 09:00:00 8.5 0 Calma 4 Noroeste 0 -- -- 89
2018-04-30 08:00:00 7.2 0 Calma 4 Oeste 0 -- -- 91
2018-04-30 07:00:00 7.3 2 Sudoeste 4 Oeste 0 -- -- 90
2018-04-30 06:00:00 7.9 3 Oeste 7 Oeste 0 -- -- 89
2018-04-30 05:00:00 8.4 3 Oeste 8 Oeste 0 -- -- 90
2018-04-30 04:00:00 8.2 3 Sudeste 9 Sudeste 0 -- -- 90
2018-04-30 03:00:00 8.2 6 Sudeste 9 Sudeste 0 -- -- 87
2018-04-30 02:00:00 8.8 0 Calma 6 Sudeste 0 -- -- 85
2018-04-30 01:00:00 9.5 3 Sudeste 18 Sudoeste 0 -- -- 81
2018-04-30 00:00:00 10.5 9 Sudoeste 27 Oeste 0 -- -- 78
2018-04-29 23:00:00 11.1 22 Oeste 32 Oeste 0 -- -- 72
2018-04-29 22:00:00 11.8 18 Oeste 30 Oeste 0 -- -- 69
2018-04-29 21:00:00 12.8 13 Oeste 44 Oeste 0 -- -- 65
2018-04-29 20:00:00 13.9 29 Oeste 41 Oeste 0 -- -- 56
2018-04-29 19:00:00 14.7 22 Oeste 42 Oeste 0 -- -- 54
2018-04-29 18:00:00 15.1 25 Oeste 41 Oeste 0 -- -- 48
2018-04-29 17:00:00 15.4 19 Oeste 41 Oeste 0 -- -- 49
2018-04-29 16:00:00 15.5 29 Oeste 45 Oeste 0 -- -- 46
2018-04-29 15:00:00 14.5 18 Oeste 38 Oeste 0 -- -- 57
2018-04-29 14:00:00 13.8 19 Oeste 48 Oeste 0.2 -- -- 58
2018-04-29 13:00:00 13.1 21 Oeste 39 Oeste 0 -- -- 60
2018-04-29 12:00:00 11.8 22 Oeste 42 Oeste 0 -- -- 60
2018-04-29 11:00:00 11 22 Oeste 37 Sudoeste 0 -- -- 68
2018-04-29 10:00:00 9.5 23 Oeste 38 Oeste 0 -- -- 78
2018-04-29 09:00:00 8.5 12 Oeste 24 Oeste 0 -- -- 84
2018-04-29 08:00:00 7.8 9 Oeste 26 Oeste 0 -- -- 85
2018-04-29 07:00:00 8.4 12 Oeste 28 Sudoeste 0 -- -- 86
2018-04-29 06:00:00 8.7 9 Oeste 21 Sudoeste 0.2 -- -- 87
2018-04-29 05:00:00 8.9 10 Oeste 23 Oeste 0 -- -- 86
2018-04-29 04:00:00 8.8 15 Oeste 27 Sudoeste 0.2 -- -- 85
2018-04-29 03:00:00 9.4 15 Sudoeste 25 Sudoeste 0.4 -- -- 84
2018-04-29 02:00:00 9.7 15 Oeste 36 Sudoeste 0.6 -- -- 83
2018-04-29 01:00:00 10.8 13 Oeste 27 Sudoeste 0 -- -- 78
2018-04-29 00:00:00 11.1 22 Sudoeste 45 Sudoeste 0 -- -- 72
2018-04-28 23:00:00 12 24 Oeste 39 Oeste 0 -- -- 66
2018-04-28 22:00:00 12.8 20 Sudoeste 42 Oeste 0 -- -- 59
2018-04-28 21:00:00 13.8 22 Oeste 43 Oeste 0 -- -- 55
2018-04-28 20:00:00 15.8 25 Oeste 43 Oeste 0 -- -- 44
2018-04-28 19:00:00 17 24 Oeste 45 Oeste 0 -- -- 44
2018-04-28 18:00:00 18 26 Oeste 40 Oeste 0 -- -- 43
2018-04-28 17:00:00 18.2 21 Oeste 42 Oeste 0 -- -- 43
2018-04-28 16:00:00 18.5 21 Oeste 36 Oeste 0 -- -- 44
2018-04-28 15:00:00 18.2 21 Oeste 40 Noroeste 0 -- -- 51
2018-04-28 14:00:00 17.6 23 Oeste 38 Oeste 0 -- -- 58
2018-04-28 13:00:00 17.8 17 Oeste 31 Noroeste 0 -- -- 64
2018-04-28 12:00:00 17.1 11 Oeste 26 Oeste 0 -- -- 67
2018-04-28 11:00:00 15.6 17 Oeste 27 Oeste 0 -- -- 76
2018-04-28 10:00:00 15.6 4 Sudoeste 8 Oeste 0 -- -- 76
2018-04-28 09:00:00 12.3 3 Sur 6 Sudeste 0 -- -- 93
2018-04-28 08:00:00 9.9 2 Nordeste 11 Noroeste 0 -- -- 92
2018-04-28 07:00:00 9.8 0 Calma 5 Noroeste 0 -- -- 88
2018-04-28 06:00:00 10.6 0 Calma 7 Sur 0 -- -- 84
2018-04-28 05:00:00 12.6 4 Sur 12 Sudoeste 0 -- -- 80
2018-04-28 04:00:00 13.6 9 Sudoeste 15 Oeste 0 -- -- 79
2018-04-28 03:00:00 12.8 5 Sur 13 Sudoeste 0 -- -- 77
2018-04-28 02:00:00 14 8 Sur 21 Oeste 0 -- -- 73
2018-04-28 01:00:00 16.2 10 Sudoeste 21 Oeste 0 -- -- 66
2018-04-28 00:00:00 15.8 9 Sur 23 Sudoeste 0 -- -- 68
2018-04-27 23:00:00 17.8 10 Oeste 20 Oeste 0 -- -- 61
2018-04-27 22:00:00 18 5 Oeste 15 Oeste 0 -- -- 64
2018-04-27 21:00:00 20 12 Oeste 20 Oeste 0 -- -- 57
2018-04-27 20:00:00 22.2 15 Noroeste 27 Oeste 0 -- -- 48
2018-04-27 19:00:00 23.1 18 Oeste 30 Oeste 0 -- -- 43
2018-04-27 18:00:00 22.5 15 Noroeste 30 Noroeste 0 -- -- 61
2018-04-27 17:00:00 23.4 19 Oeste 33 Oeste 0 -- -- 57
2018-04-27 16:00:00 23.1 12 Noroeste 23 Noroeste 0 -- -- 58
2018-04-27 15:00:00 23 9 Oeste 17 Noroeste 0 -- -- 59
2018-04-27 14:00:00 22.7 6 Sudoeste 11 Sur 0 -- -- 60
2018-04-27 13:00:00 21.5 6 Sudoeste 9 Sudoeste 0 -- -- 63
2018-04-27 12:00:00 19.8 5 Sudoeste 11 Sudoeste 0 -- -- 70
2018-04-27 11:00:00 18 6 Sudoeste 12 Sudeste 0 -- -- 81
2018-04-27 10:00:00 16.7 5 Sudeste 12 Este 0 -- -- 88
2018-04-27 09:00:00 14.2 9 Sudeste 13 Sudeste 0 -- -- 95
2018-04-27 08:00:00 12.9 0 Calma 5 Noroeste 0 -- -- 94
2018-04-27 07:00:00 12.5 4 Norte 6 Noroeste 0 -- -- 93
2018-04-27 06:00:00 13.1 3 Norte 5 Oeste 0 -- -- 93
2018-04-27 05:00:00 13.6 0 Calma 9 Sur 0 -- -- 93
2018-04-27 04:00:00 13.9 6 Sur 9 Sur 0 -- -- 92
2018-04-27 03:00:00 14.3 6 Sur 11 Sudoeste 0 -- -- 91
2018-04-27 02:00:00 14.6 8 Sur 13 Sur 0 -- -- 92
2018-04-27 01:00:00 14.8 4 Sudeste 17 Sur 0 -- -- 91
2018-04-27 00:00:00 15.1 9 Sudoeste 15 Sudoeste 0 -- -- 90
2018-04-26 23:00:00 15.4 9 Sur 26 Sur 0 -- -- 87
2018-04-26 22:00:00 15.8 14 Sur 24 Sur 0 -- -- 87
2018-04-26 21:00:00 16 17 Sur 30 Sur 0 -- -- 84
2018-04-26 20:00:00 17.1 22 Sur 33 Sur 0 -- -- 75
2018-04-26 19:00:00 19 19 Sur 31 Sur 0 -- -- 66
2018-04-26 18:00:00 19.6 20 Sur 36 Sur 0 -- -- 67
2018-04-26 17:00:00 21.9 23 Sur 33 Sudeste 0 -- -- 58
2018-04-26 16:00:00 23.4 18 Sudoeste 24 Sudoeste 0 -- -- 59
2018-04-26 15:00:00 24.3 5 Norte 18 Norte 0 -- -- 53
2018-04-26 14:00:00 23.3 4 Nordeste 14 Norte 0 -- -- 57
2018-04-26 13:00:00 21.6 9 Norte 16 Noroeste 0 -- -- 64
2018-04-26 12:00:00 20 6 Sudoeste 12 Nordeste 0 -- -- 70
2018-04-26 11:00:00 17.7 4 Norte 11 Norte 0 -- -- 79
2018-04-26 10:00:00 16.4 4 Nordeste 8 Norte 0 -- -- 90
2018-04-26 09:00:00 13.6 3 Norte 5 Norte 0 -- -- 93
2018-04-26 08:00:00 12.1 0 Calma 8 Nordeste 0 -- -- 93
2018-04-26 07:00:00 12.6 4 Norte 6 Norte 0 -- -- 91
2018-04-26 06:00:00 13.2 2 Sudeste 7 Noroeste 0 -- -- 91
2018-04-26 05:00:00 13.6 3 Sudeste 9 Sudeste 0 -- -- 88
2018-04-26 04:00:00 14.6 5 Sur 15 Sudeste 0 -- -- 85
2018-04-26 03:00:00 14.6 2 Sudoeste 14 Sudoeste 0 -- -- 86
2018-04-26 02:00:00 15.3 11 Sudoeste 16 Oeste 0 -- -- 82
2018-04-26 01:00:00 14.9 8 Sudoeste 17 Sudoeste 0 -- -- 83
2018-04-26 00:00:00 16.2 11 Sudoeste 18 Sudoeste 0 -- -- 78
2018-04-25 23:00:00 16.9 14 Sudoeste 21 Sudoeste 0 -- -- 73
2018-04-25 22:00:00 16.8 10 Sur 21 Sur 0 -- -- 77
2018-04-25 21:00:00 18.5 14 Sur 20 Sudeste 0 -- -- 72
2018-04-25 20:00:00 21.1 12 Sur 17 Sur 0 -- -- 64
2018-04-25 19:00:00 22.6 4 Este 10 Oeste 0 -- -- 48
2018-04-25 18:00:00 22.7 4 Noroeste 9 Noroeste 0 -- -- 53
2018-04-25 17:00:00 22.5 3 Este 13 Nordeste 0 -- -- 54
2018-04-25 16:00:00 21.3 7 Norte 15 Norte 0 -- -- 57
2018-04-25 15:00:00 21.1 9 Norte 15 Nordeste 0 -- -- 59
2018-04-25 14:00:00 20.1 5 Norte 15 Norte 0 -- -- 66
2018-04-25 13:00:00 19.5 3 Sudoeste 11 Noroeste 0 -- -- 69
2018-04-25 12:00:00 17.9 3 Norte 9 Este 0 -- -- 76
2018-04-25 11:00:00 15.9 6 Oeste 14 Oeste 0 -- -- 83
2018-04-25 10:00:00 14.4 4 Nordeste 6 Nordeste 0 -- -- 94
2018-04-25 09:00:00 13.1 2 Nordeste 9 Norte 0 -- -- 94
2018-04-25 08:00:00 12.9 2 Este 5 Nordeste 0 -- -- 93
2018-04-25 07:00:00 12.4 2 Norte 7 Norte 0 -- -- 93
2018-04-25 06:00:00 13.1 0 Calma 8 Nordeste 0 -- -- 92
2018-04-25 05:00:00 13.4 5 Este 9 Sudeste 0 -- -- 91
2018-04-25 04:00:00 14.3 5 Sur 21 Sudoeste 0 -- -- 89
2018-04-25 03:00:00 14.6 8 Sudoeste 14 Sudoeste 0 -- -- 90
2018-04-25 02:00:00 14.6 9 Sur 19 Sur 0 -- -- 88
2018-04-25 01:00:00 15.6 13 Sur 25 Sur 0 -- -- 85
2018-04-25 00:00:00 15.9 6 Sudeste 14 Sudeste 0 -- -- 83
2018-04-24 23:00:00 17.7 3 Nordeste 7 Sudeste 0 -- -- 77
2018-04-24 22:00:00 19.2 2 Oeste 24 Noroeste 0 -- -- 69
2018-04-24 21:00:00 19.9 14 Norte 26 Sudoeste 0 -- -- 65
2018-04-24 20:00:00 20.4 15 Sudoeste 28 Oeste 0 -- -- 69
2018-04-24 19:00:00 21.9 21 Noroeste 31 Noroeste 0 -- -- 62
2018-04-24 18:00:00 24.6 10 Oeste 26 Oeste 0 -- -- 52
2018-04-24 17:00:00 25.4 9 Sudoeste 17 Sudoeste 0 -- -- 45
2018-04-24 16:00:00 24.5 11 Sudoeste 15 Sudoeste 0 -- -- 46
2018-04-24 15:00:00 23.5 9 Sudoeste 19 Sudoeste 0 -- -- 49
2018-04-24 14:00:00 22.9 12 Sudoeste 17 Sudoeste 0 -- -- 55
2018-04-24 13:00:00 21.3 4 Oeste 9 Sudoeste 0 -- -- 63
2018-04-24 12:00:00 20 5 Sudoeste 9 Sudoeste 0 -- -- 68
2018-04-24 11:00:00 18.6 4 Sudoeste 9 Sur 0 -- -- 76
2018-04-24 10:00:00 16.6 8 Sur 11 Sudeste 0 -- -- 87
2018-04-24 09:00:00 15.3 8 Sudeste 11 Sudeste 0 -- -- 87
2018-04-24 08:00:00 15.2 3 Sudoeste 14 Norte 0 -- -- 85
2018-04-24 07:00:00 16.3 7 Norte 15 Nordeste 0 -- -- 79
2018-04-24 06:00:00 16.9 8 Nordeste 13 Nordeste 0 -- -- 75
2018-04-24 05:00:00 17.3 3 Noroeste 13 Norte 0 -- -- 69
2018-04-24 04:00:00 18.7 10 Nordeste 22 Nordeste 0 -- -- 60
2018-04-24 03:00:00 19.8 17 Nordeste 32 Norte 0 -- -- 54
2018-04-24 02:00:00 19.4 16 Nordeste 31 Este 0 -- -- 64
2018-04-24 01:00:00 17.7 6 Sudoeste 19 Sudoeste 0.8 -- -- 86
2018-04-24 00:00:00 19 3 Oeste 12 Este 0 -- -- 77
2018-04-23 23:00:00 19.4 8 Sudeste 26 Norte 0 -- -- 71
2018-04-23 22:00:00 20.3 15 Noroeste 36 Oeste 0 -- -- 65
2018-04-23 21:00:00 21.2 16 Sur 30 Sur 0 -- -- 72
2018-04-23 20:00:00 23 9 Noroeste 19 Noroeste 0 -- -- 59
2018-04-23 19:00:00 24.8 9 Noroeste 19 Noroeste 0 -- -- 59
2018-04-23 18:00:00 24.6 8 Sudoeste 22 Sudoeste 0 -- -- 56
2018-04-23 17:00:00 26 11 Sudoeste 26 Nordeste 0 -- -- 54
2018-04-23 16:00:00 23.1 13 Este 31 Sudeste 0 -- -- 52
2018-04-23 15:00:00 19.8 8 Sur 32 Sur 0 -- -- 78
2018-04-23 14:00:00 20.6 6 Sudeste 12 Sur 0 -- -- 72
2018-04-23 13:00:00 17.4 9 Sur 19 Sur 0 -- -- 83
2018-04-23 12:00:00 17.5 4 Sudeste 6 Este 0 -- -- 83
2018-04-23 11:00:00 16.8 4 Nordeste 11 Este 0 -- -- 86
2018-04-23 10:00:00 15.5 5 Norte 9 Nordeste 0 -- -- 95
2018-04-23 09:00:00 14.9 5 Norte 12 Nordeste 0 -- -- 95
2018-04-23 08:00:00 14.5 8 Nordeste 12 Norte 0 -- -- 95
2018-04-23 07:00:00 14.5 9 Norte 15 Norte 0 -- -- 94
2018-04-23 06:00:00 13.9 7 Norte 12 Nordeste 0.2 -- -- 93
2018-04-23 05:00:00 14.9 6 Norte 10 Norte 0 -- -- 93
2018-04-23 04:00:00 15.6 6 Norte 12 Norte 0 -- -- 92
2018-04-23 03:00:00 16.2 3 Nordeste 10 Sur 0.2 -- -- 90
2018-04-23 02:00:00 16.5 7 Sudeste 27 Sur 0.2 -- -- 87
2018-04-23 01:00:00 16.5 8 Noroeste 28 Sudoeste 0.8 -- -- 90
2018-04-23 00:00:00 17.1 19 Sudoeste 26 Sudoeste 0 -- -- 89
2018-04-22 23:00:00 17.1 3 Sur 24 Sur 1.2 -- -- 89
2018-04-22 22:00:00 18.3 12 Sudoeste 22 Noroeste 0.8 -- -- 86
2018-04-22 21:00:00 20 14 Oeste 27 Oeste 0.4 -- -- 73
2018-04-22 20:00:00 22.3 14 Noroeste 23 Oeste 0 -- -- 61
2018-04-22 19:00:00 25.1 8 Oeste 19 Sudoeste 0 -- -- 44
2018-04-22 18:00:00 25.3 12 Sudoeste 21 Oeste 0 -- -- 44
2018-04-22 17:00:00 25.1 12 Sudoeste 22 Sudoeste 0 -- -- 46
2018-04-22 16:00:00 24.5 14 Sur 22 Sur 0 -- -- 48
2018-04-22 15:00:00 23.9 12 Sur 25 Sur 0 -- -- 52
2018-04-22 14:00:00 22.8 11 Sur 23 Sur 0 -- -- 57
2018-04-22 13:00:00 21.6 13 Sur 24 Sur 0 -- -- 60
2018-04-22 12:00:00 20.1 14 Sur 31 Sur 0 -- -- 63
2018-04-22 11:00:00 18.1 18 Sur 28 Sur 0 -- -- 67
2018-04-22 10:00:00 14.7 10 Sur 17 Sur 0 -- -- 91
2018-04-22 09:00:00 11.3 2 Oeste 5 Sudoeste 0 -- -- 94
2018-04-22 08:00:00 10 2 Oeste 8 Sudeste 0 -- -- 93
2018-04-22 07:00:00 10.8 0 Calma 8 Noroeste 0 -- -- 93
2018-04-22 06:00:00 11.3 0 Calma 6 Sur 0 -- -- 91
2018-04-22 05:00:00 12.2 4 Sur 9 Oeste 0 -- -- 89
2018-04-22 04:00:00 12.7 4 Sur 13 Oeste 0 -- -- 88
2018-04-22 03:00:00 13.5 3 Este 10 Este 0 -- -- 87
2018-04-22 02:00:00 14.2 4 Noroeste 11 Nordeste 0 -- -- 84
2018-04-22 01:00:00 14.9 4 Sur 13 Sudoeste 0 -- -- 79
2018-04-22 00:00:00 15.1 9 Sur 18 Sur 0 -- -- 78